sensor_id;sensor_type;location;lat;lon;timestamp;temperature;humidity
1766;DHT22;880;52.452;8.656;2023-06-22T00:00:02;20.90;99.90
1766;DHT22;880;52.452;8.656;2023-06-22T00:02:37;20.90;99.90
1766;DHT22;880;52.452;8.656;2023-06-22T00:05:05;20.80;99.90
1766;DHT22;880;52.452;8.656;2023-06-22T00:07:32;20.80;99.90
1766;DHT22;880;52.452;8.656;2023-06-22T00:09:59;20.80;99.90
1766;DHT22;880;52.452;8.656;2023-06-22T00:12:26;20.70;99.90
1766;DHT22;880;52.452;8.656;2023-06-22T00:14:53;20.60;99.90
1766;DHT22;880;52.452;8.656;2023-06-22T00:17:20;20.50;99.90
1766;DHT22;880;52.452;8.656;2023-06-22T00:19:47;20.50;99.90
1766;DHT22;880;52.452;8.656;2023-06-22T00:22:14;20.60;99.90
1766;DHT22;880;52.452;8.656;2023-06-22T00:24:43;20.60;99.90
1766;DHT22;880;52.452;8.656;2023-06-22T00:27:10;20.60;99.90
1766;DHT22;880;52.452;8.656;2023-06-22T00:29:37;20.50;99.90
1766;DHT22;880;52.452;8.656;2023-06-22T00:32:05;20.50;99.90
1766;DHT22;880;52.452;8.656;2023-06-22T00:34:32;20.40;99.90
1766;DHT22;880;52.452;8.656;2023-06-22T00:36:59;20.40;99.90
1766;DHT22;880;52.452;8.656;2023-06-22T00:39:26;20.40;99.90
1766;DHT22;880;52.452;8.656;2023-06-22T00:41:53;20.40;99.90
1766;DHT22;880;52.452;8.656;2023-06-22T00:44:20;20.40;99.90
1766;DHT22;880;52.452;8.656;2023-06-22T00:46:47;20.20;99.90
1766;DHT22;880;52.452;8.656;2023-06-22T00:49:14;20.10;99.90
1766;DHT22;880;52.452;8.656;2023-06-22T00:51:41;20.10;99.90
1766;DHT22;880;52.452;8.656;2023-06-22T00:54:12;20.20;99.90
1766;DHT22;880;52.452;8.656;2023-06-22T00:56:40;20.10;99.90
1766;DHT22;880;52.452;8.656;2023-06-22T00:59:08;20.10;99.90
1766;DHT22;880;52.452;8.656;2023-06-22T01:01:38;20.00;99.90
1766;DHT22;880;52.452;8.656;2023-06-22T01:04:07;20.00;99.90
1766;DHT22;880;52.452;8.656;2023-06-22T01:13:04;20.00;99.90
1766;DHT22;880;52.452;8.656;2023-06-22T01:15:43;20.00;99.90
1766;DHT22;880;52.452;8.656;2023-06-22T01:18:14;19.90;99.90
1766;DHT22;880;52.452;8.656;2023-06-22T01:20:43;19.70;99.90
1766;DHT22;880;52.452;8.656;2023-06-22T01:23:33;19.60;99.90
1766;DHT22;880;52.452;8.656;2023-06-22T01:28:55;19.50;99.90
1766;DHT22;880;52.452;8.656;2023-06-22T01:31:27;19.40;99.90
1766;DHT22;880;52.452;8.656;2023-06-22T01:34:00;19.40;99.90
1766;DHT22;880;52.452;8.656;2023-06-22T01:36:29;19.40;99.90
1766;DHT22;880;52.452;8.656;2023-06-22T01:38:58;19.30;99.90
1766;DHT22;880;52.452;8.656;2023-06-22T01:41:26;19.20;99.90
1766;DHT22;880;52.452;8.656;2023-06-22T01:43:56;19.20;99.90
1766;DHT22;880;52.452;8.656;2023-06-22T01:46:23;19.30;99.90
1766;DHT22;880;52.452;8.656;2023-06-22T01:48:50;19.30;99.90
1766;DHT22;880;52.452;8.656;2023-06-22T01:51:18;19.30;99.90
1766;DHT22;880;52.452;8.656;2023-06-22T01:53:45;19.30;99.90
1766;DHT22;880;52.452;8.656;2023-06-22T01:56:17;19.20;99.90
1766;DHT22;880;52.452;8.656;2023-06-22T01:59:01;19.20;99.90
1766;DHT22;880;52.452;8.656;2023-06-22T02:01:44;19.10;99.90
1766;DHT22;880;52.452;8.656;2023-06-22T02:04:26;19.00;99.90
1766;DHT22;880;52.452;8.656;2023-06-22T02:06:58;18.90;99.90
1766;DHT22;880;52.452;8.656;2023-06-22T02:09:29;18.80;99.90
1766;DHT22;880;52.452;8.656;2023-06-22T02:12:00;18.60;99.90
1766;DHT22;880;52.452;8.656;2023-06-22T02:14:29;18.60;99.90
1766;DHT22;880;52.452;8.656;2023-06-22T02:16:56;18.60;99.90
1766;DHT22;880;52.452;8.656;2023-06-22T02:19:26;18.60;99.90
1766;DHT22;880;52.452;8.656;2023-06-22T02:21:53;18.60;99.90
1766;DHT22;880;52.452;8.656;2023-06-22T02:24:20;18.50;99.90
1766;DHT22;880;52.452;8.656;2023-06-22T02:26:49;18.60;99.90
1766;DHT22;880;52.452;8.656;2023-06-22T02:29:16;18.60;99.90
1766;DHT22;880;52.452;8.656;2023-06-22T02:31:44;18.50;99.90
1766;DHT22;880;52.452;8.656;2023-06-22T02:34:11;18.50;99.90
1766;DHT22;880;52.452;8.656;2023-06-22T02:36:49;18.50;99.90
1766;DHT22;880;52.452;8.656;2023-06-22T02:39:20;18.60;99.90
1766;DHT22;880;52.452;8.656;2023-06-22T02:41:50;18.60;99.90
1766;DHT22;880;52.452;8.656;2023-06-22T02:44:18;18.60;99.90
1766;DHT22;880;52.452;8.656;2023-06-22T02:46:48;18.60;99.90
1766;DHT22;880;52.452;8.656;2023-06-22T02:49:16;18.50;99.90
1766;DHT22;880;52.452;8.656;2023-06-22T02:51:46;18.50;99.90
1766;DHT22;880;52.452;8.656;2023-06-22T02:54:17;18.30;99.90
1766;DHT22;880;52.452;8.656;2023-06-22T02:56:45;18.20;99.90
1766;DHT22;880;52.452;8.656;2023-06-22T02:59:13;18.00;99.90
1766;DHT22;880;52.452;8.656;2023-06-22T03:01:40;18.00;99.90
1766;DHT22;880;52.452;8.656;2023-06-22T03:04:16;18.10;99.90
1766;DHT22;880;52.452;8.656;2023-06-22T03:06:43;18.20;99.90
1766;DHT22;880;52.452;8.656;2023-06-22T03:09:10;18.20;99.90
1766;DHT22;880;52.452;8.656;2023-06-22T03:11:37;18.30;99.90
1766;DHT22;880;52.452;8.656;2023-06-22T03:14:04;18.30;99.90
1766;DHT22;880;52.452;8.656;2023-06-22T03:16:31;18.40;99.90
1766;DHT22;880;52.452;8.656;2023-06-22T03:18:59;18.40;99.90
1766;DHT22;880;52.452;8.656;2023-06-22T03:21:28;18.40;99.90
1766;DHT22;880;52.452;8.656;2023-06-22T03:23:55;18.30;99.90
1766;DHT22;880;52.452;8.656;2023-06-22T03:26:22;18.20;99.90
1766;DHT22;880;52.452;8.656;2023-06-22T03:28:53;18.20;99.90
1766;DHT22;880;52.452;8.656;2023-06-22T03:31:20;18.10;99.90
1766;DHT22;880;52.452;8.656;2023-06-22T03:33:49;18.10;99.90
1766;DHT22;880;52.452;8.656;2023-06-22T03:36:17;18.10;99.90
1766;DHT22;880;52.452;8.656;2023-06-22T03:38:48;18.10;99.90
1766;DHT22;880;52.452;8.656;2023-06-22T03:41:16;18.20;99.90
1766;DHT22;880;52.452;8.656;2023-06-22T03:43:43;18.30;99.90
1766;DHT22;880;52.452;8.656;2023-06-22T03:46:10;18.30;99.90
1766;DHT22;880;52.452;8.656;2023-06-22T03:48:38;18.30;99.90
1766;DHT22;880;52.452;8.656;2023-06-22T03:51:06;18.20;99.90
1766;DHT22;880;52.452;8.656;2023-06-22T03:53:33;18.20;99.90
1766;DHT22;880;52.452;8.656;2023-06-22T03:56:00;18.20;99.90
1766;DHT22;880;52.452;8.656;2023-06-22T03:58:27;18.10;99.90
1766;DHT22;880;52.452;8.656;2023-06-22T04:01:00;18.10;99.90
1766;DHT22;880;52.452;8.656;2023-06-22T04:03:27;18.10;99.90
1766;DHT22;880;52.452;8.656;2023-06-22T04:05:54;18.10;99.90
1766;DHT22;880;52.452;8.656;2023-06-22T04:08:21;18.10;99.90
1766;DHT22;880;52.452;8.656;2023-06-22T04:10:48;18.10;99.90
1766;DHT22;880;52.452;8.656;2023-06-22T04:13:15;18.00;99.90
1766;DHT22;880;52.452;8.656;2023-06-22T04:15:42;18.10;99.90
1766;DHT22;880;52.452;8.656;2023-06-22T04:18:09;18.20;99.90
1766;DHT22;880;52.452;8.656;2023-06-22T04:20:36;18.20;99.90
1766;DHT22;880;52.452;8.656;2023-06-22T04:23:03;18.30;99.90
1766;DHT22;880;52.452;8.656;2023-06-22T04:25:30;18.40;99.90
1766;DHT22;880;52.452;8.656;2023-06-22T04:27:57;18.40;99.90
1766;DHT22;880;52.452;8.656;2023-06-22T04:30:24;18.60;99.90
1766;DHT22;880;52.452;8.656;2023-06-22T04:32:51;18.70;99.90
1766;DHT22;880;52.452;8.656;2023-06-22T04:35:25;18.80;99.90
1766;DHT22;880;52.452;8.656;2023-06-22T04:37:53;19.00;99.90
1766;DHT22;880;52.452;8.656;2023-06-22T04:40:22;19.10;99.90
1766;DHT22;880;52.452;8.656;2023-06-22T04:42:50;19.20;99.90
1766;DHT22;880;52.452;8.656;2023-06-22T04:45:20;19.30;99.90
1766;DHT22;880;52.452;8.656;2023-06-22T04:47:48;19.40;99.90
1766;DHT22;880;52.452;8.656;2023-06-22T04:50:15;19.40;99.90
1766;DHT22;880;52.452;8.656;2023-06-22T04:52:43;19.40;99.90
1766;DHT22;880;52.452;8.656;2023-06-22T04:55:12;19.40;99.90
1766;DHT22;880;52.452;8.656;2023-06-22T04:57:41;19.50;99.90
1766;DHT22;880;52.452;8.656;2023-06-22T05:00:18;19.70;99.90
1766;DHT22;880;52.452;8.656;2023-06-22T05:02:46;19.80;99.90
1766;DHT22;880;52.452;8.656;2023-06-22T05:05:14;20.00;99.90
1766;DHT22;880;52.452;8.656;2023-06-22T05:07:43;20.10;99.90
1766;DHT22;880;52.452;8.656;2023-06-22T05:10:12;20.20;99.90
1766;DHT22;880;52.452;8.656;2023-06-22T05:12:40;20.30;99.90
1766;DHT22;880;52.452;8.656;2023-06-22T05:15:08;20.50;99.90
1766;DHT22;880;52.452;8.656;2023-06-22T05:17:36;20.60;99.90
1766;DHT22;880;52.452;8.656;2023-06-22T05:20:10;20.60;99.90
1766;DHT22;880;52.452;8.656;2023-06-22T05:22:39;20.60;99.90
1766;DHT22;880;52.452;8.656;2023-06-22T05:25:08;20.60;99.90
1766;DHT22;880;52.452;8.656;2023-06-22T05:27:36;20.50;99.90
1766;DHT22;880;52.452;8.656;2023-06-22T05:30:07;20.50;99.90
1766;DHT22;880;52.452;8.656;2023-06-22T05:32:35;20.60;99.90
1766;DHT22;880;52.452;8.656;2023-06-22T05:35:03;20.60;99.90
1766;DHT22;880;52.452;8.656;2023-06-22T05:37:31;20.70;99.90
1766;DHT22;880;52.452;8.656;2023-06-22T05:39:57;20.70;99.90
1766;DHT22;880;52.452;8.656;2023-06-22T05:42:24;20.70;99.90
1766;DHT22;880;52.452;8.656;2023-06-22T05:44:53;20.70;99.90
1766;DHT22;880;52.452;8.656;2023-06-22T05:47:20;20.70;99.90
1766;DHT22;880;52.452;8.656;2023-06-22T05:49:47;20.70;99.90
1766;DHT22;880;52.452;8.656;2023-06-22T05:52:14;20.70;99.90
1766;DHT22;880;52.452;8.656;2023-06-22T05:54:41;20.80;99.90
1766;DHT22;880;52.452;8.656;2023-06-22T05:57:09;20.90;99.90
1766;DHT22;880;52.452;8.656;2023-06-22T05:59:36;21.00;99.90
1766;DHT22;880;52.452;8.656;2023-06-22T06:02:03;21.00;99.90
1766;DHT22;880;52.452;8.656;2023-06-22T06:04:31;21.10;99.90
1766;DHT22;880;52.452;8.656;2023-06-22T06:06:58;21.30;99.90
1766;DHT22;880;52.452;8.656;2023-06-22T06:09:25;21.50;99.90
1766;DHT22;880;52.452;8.656;2023-06-22T06:11:52;21.60;99.90
1766;DHT22;880;52.452;8.656;2023-06-22T06:14:19;21.70;99.90
1766;DHT22;880;52.452;8.656;2023-06-22T06:16:48;21.70;99.90
1766;DHT22;880;52.452;8.656;2023-06-22T06:19:15;21.80;99.90
1766;DHT22;880;52.452;8.656;2023-06-22T06:21:42;22.00;99.90
1766;DHT22;880;52.452;8.656;2023-06-22T06:24:10;22.10;99.90
1766;DHT22;880;52.452;8.656;2023-06-22T06:26:38;22.10;99.90
1766;DHT22;880;52.452;8.656;2023-06-22T06:29:08;22.10;99.90
1766;DHT22;880;52.452;8.656;2023-06-22T06:31:35;22.10;99.90
1766;DHT22;880;52.452;8.656;2023-06-22T06:34:02;22.10;99.90
1766;DHT22;880;52.452;8.656;2023-06-22T06:36:29;22.20;99.90
1766;DHT22;880;52.452;8.656;2023-06-22T06:38:56;22.40;99.90
1766;DHT22;880;52.452;8.656;2023-06-22T06:41:23;22.40;99.90
1766;DHT22;880;52.452;8.656;2023-06-22T06:43:50;22.50;99.90
1766;DHT22;880;52.452;8.656;2023-06-22T06:46:18;22.60;99.90
1766;DHT22;880;52.452;8.656;2023-06-22T06:48:45;22.70;99.90
1766;DHT22;880;52.452;8.656;2023-06-22T06:51:13;22.80;99.90
1766;DHT22;880;52.452;8.656;2023-06-22T06:53:39;23.00;99.90
1766;DHT22;880;52.452;8.656;2023-06-22T06:56:06;23.20;99.90
1766;DHT22;880;52.452;8.656;2023-06-22T06:58:35;23.20;99.90
1766;DHT22;880;52.452;8.656;2023-06-22T07:01:03;23.30;99.90
1766;DHT22;880;52.452;8.656;2023-06-22T07:03:30;23.30;99.90
1766;DHT22;880;52.452;8.656;2023-06-22T07:05:59;23.40;99.90
1766;DHT22;880;52.452;8.656;2023-06-22T07:08:26;23.60;99.90
1766;DHT22;880;52.452;8.656;2023-06-22T07:10:53;23.80;99.90
1766;DHT22;880;52.452;8.656;2023-06-22T07:13:20;24.10;99.90
1766;DHT22;880;52.452;8.656;2023-06-22T07:15:47;24.10;99.90
1766;DHT22;880;52.452;8.656;2023-06-22T07:18:14;24.10;99.90
1766;DHT22;880;52.452;8.656;2023-06-22T07:20:41;24.20;99.90
1766;DHT22;880;52.452;8.656;2023-06-22T07:23:08;24.40;99.90
1766;DHT22;880;52.452;8.656;2023-06-22T07:25:35;24.50;99.90
1766;DHT22;880;52.452;8.656;2023-06-22T07:28:04;24.60;99.90
1766;DHT22;880;52.452;8.656;2023-06-22T07:30:33;24.80;99.90
1766;DHT22;880;52.452;8.656;2023-06-22T07:33:01;25.00;99.90
1766;DHT22;880;52.452;8.656;2023-06-22T07:35:31;25.00;99.90
1766;DHT22;880;52.452;8.656;2023-06-22T07:37:58;25.10;99.90
1766;DHT22;880;52.452;8.656;2023-06-22T07:40:30;25.20;99.90
1766;DHT22;880;52.452;8.656;2023-06-22T07:42:58;25.20;99.90
1766;DHT22;880;52.452;8.656;2023-06-22T07:45:26;25.10;99.90
1766;DHT22;880;52.452;8.656;2023-06-22T07:47:53;25.10;99.90
1766;DHT22;880;52.452;8.656;2023-06-22T07:50:20;25.20;99.90
1766;DHT22;880;52.452;8.656;2023-06-22T07:52:48;25.30;99.90
1766;DHT22;880;52.452;8.656;2023-06-22T07:55:16;25.40;99.90
1766;DHT22;880;52.452;8.656;2023-06-22T07:57:43;25.40;99.90
1766;DHT22;880;52.452;8.656;2023-06-22T08:00:10;25.40;99.90
1766;DHT22;880;52.452;8.656;2023-06-22T08:02:45;25.30;99.90
1766;DHT22;880;52.452;8.656;2023-06-22T08:05:13;25.20;99.90
1766;DHT22;880;52.452;8.656;2023-06-22T08:07:48;25.30;99.90
1766;DHT22;880;52.452;8.656;2023-06-22T08:10:16;25.30;99.90
1766;DHT22;880;52.452;8.656;2023-06-22T08:12:43;25.30;99.90
1766;DHT22;880;52.452;8.656;2023-06-22T08:15:10;25.40;99.90
1766;DHT22;880;52.452;8.656;2023-06-22T08:17:38;25.40;99.90
1766;DHT22;880;52.452;8.656;2023-06-22T08:20:07;25.30;99.90
1766;DHT22;880;52.452;8.656;2023-06-22T08:22:41;25.40;99.90
1766;DHT22;880;52.452;8.656;2023-06-22T08:25:09;25.40;99.90
1766;DHT22;880;52.452;8.656;2023-06-22T08:27:37;25.40;99.90
1766;DHT22;880;52.452;8.656;2023-06-22T08:30:04;25.40;99.90
1766;DHT22;880;52.452;8.656;2023-06-22T08:32:32;25.40;99.90
1766;DHT22;880;52.452;8.656;2023-06-22T08:35:00;25.40;99.90
1766;DHT22;880;52.452;8.656;2023-06-22T08:37:28;25.40;99.90
1766;DHT22;880;52.452;8.656;2023-06-22T08:40:01;25.40;99.90
1766;DHT22;880;52.452;8.656;2023-06-22T08:42:37;25.40;99.90
1766;DHT22;880;52.452;8.656;2023-06-22T08:45:05;25.40;99.90
1766;DHT22;880;52.452;8.656;2023-06-22T08:47:32;25.40;99.90
1766;DHT22;880;52.452;8.656;2023-06-22T08:49:59;25.40;99.90
1766;DHT22;880;52.452;8.656;2023-06-22T08:52:29;25.40;99.90
1766;DHT22;880;52.452;8.656;2023-06-22T08:54:57;25.40;99.90
1766;DHT22;880;52.452;8.656;2023-06-22T08:57:25;25.30;99.90
1766;DHT22;880;52.452;8.656;2023-06-22T08:59:52;25.30;99.90
1766;DHT22;880;52.452;8.656;2023-06-22T09:02:20;25.30;99.90
1766;DHT22;880;52.452;8.656;2023-06-22T09:04:47;25.40;99.90
1766;DHT22;880;52.452;8.656;2023-06-22T09:07:15;25.50;99.90
1766;DHT22;880;52.452;8.656;2023-06-22T09:09:49;25.50;99.90
1766;DHT22;880;52.452;8.656;2023-06-22T09:12:17;25.70;99.90
1766;DHT22;880;52.452;8.656;2023-06-22T09:14:46;25.90;99.90
1766;DHT22;880;52.452;8.656;2023-06-22T09:17:13;25.90;99.90
1766;DHT22;880;52.452;8.656;2023-06-22T09:19:40;26.00;99.90
1766;DHT22;880;52.452;8.656;2023-06-22T09:22:07;26.00;99.90
1766;DHT22;880;52.452;8.656;2023-06-22T09:24:34;26.20;99.90
1766;DHT22;880;52.452;8.656;2023-06-22T09:27:01;26.30;99.90
1766;DHT22;880;52.452;8.656;2023-06-22T09:29:28;26.50;99.90
1766;DHT22;880;52.452;8.656;2023-06-22T09:31:55;26.50;99.90
1766;DHT22;880;52.452;8.656;2023-06-22T09:34:22;26.60;99.90
1766;DHT22;880;52.452;8.656;2023-06-22T09:36:49;26.60;99.90
1766;DHT22;880;52.452;8.656;2023-06-22T09:39:18;26.80;99.90
1766;DHT22;880;52.452;8.656;2023-06-22T09:41:45;27.10;99.90
1766;DHT22;880;52.452;8.656;2023-06-22T09:44:12;27.40;99.90
1766;DHT22;880;52.452;8.656;2023-06-22T09:46:39;27.60;99.90
1766;DHT22;880;52.452;8.656;2023-06-22T09:49:06;28.00;99.90
1766;DHT22;880;52.452;8.656;2023-06-22T09:51:33;28.20;99.90
1766;DHT22;880;52.452;8.656;2023-06-22T09:54:00;28.50;99.90
1766;DHT22;880;52.452;8.656;2023-06-22T09:56:27;28.60;99.90
1766;DHT22;880;52.452;8.656;2023-06-22T09:58:56;28.60;99.90
1766;DHT22;880;52.452;8.656;2023-06-22T10:01:35;28.50;99.90
1766;DHT22;880;52.452;8.656;2023-06-22T10:04:02;28.40;99.90
1766;DHT22;880;52.452;8.656;2023-06-22T10:06:30;28.20;99.90
1766;DHT22;880;52.452;8.656;2023-06-22T10:08:57;28.30;99.90
1766;DHT22;880;52.452;8.656;2023-06-22T10:11:24;28.20;99.90
1766;DHT22;880;52.452;8.656;2023-06-22T10:13:55;28.20;99.90
1766;DHT22;880;52.452;8.656;2023-06-22T10:16:25;28.20;99.90
1766;DHT22;880;52.452;8.656;2023-06-22T10:18:57;28.20;99.90
1766;DHT22;880;52.452;8.656;2023-06-22T10:21:24;28.20;99.90
1766;DHT22;880;52.452;8.656;2023-06-22T10:23:52;28.20;99.90
1766;DHT22;880;52.452;8.656;2023-06-22T10:26:19;28.10;99.90
1766;DHT22;880;52.452;8.656;2023-06-22T10:28:46;28.10;99.90
1766;DHT22;880;52.452;8.656;2023-06-22T10:31:13;28.00;99.90
1766;DHT22;880;52.452;8.656;2023-06-22T10:33:40;27.90;99.90
1766;DHT22;880;52.452;8.656;2023-06-22T10:36:10;27.90;99.90
1766;DHT22;880;52.452;8.656;2023-06-22T10:38:37;27.90;99.90
1766;DHT22;880;52.452;8.656;2023-06-22T10:41:04;28.00;99.90
1766;DHT22;880;52.452;8.656;2023-06-22T10:43:32;28.00;99.90
1766;DHT22;880;52.452;8.656;2023-06-22T10:45:59;28.10;99.90
1766;DHT22;880;52.452;8.656;2023-06-22T10:48:26;28.10;99.90
1766;DHT22;880;52.452;8.656;2023-06-22T10:50:53;28.10;99.90
1766;DHT22;880;52.452;8.656;2023-06-22T10:53:21;28.10;99.90
1766;DHT22;880;52.452;8.656;2023-06-22T10:55:48;28.10;99.90
1766;DHT22;880;52.452;8.656;2023-06-22T10:58:23;28.10;99.90
1766;DHT22;880;52.452;8.656;2023-06-22T11:00:50;28.10;99.90
1766;DHT22;880;52.452;8.656;2023-06-22T11:03:17;28.10;99.90
1766;DHT22;880;52.452;8.656;2023-06-22T11:05:44;28.00;99.90
1766;DHT22;880;52.452;8.656;2023-06-22T11:08:11;28.00;99.90
1766;DHT22;880;52.452;8.656;2023-06-22T11:10:38;28.00;99.90
1766;DHT22;880;52.452;8.656;2023-06-22T11:13:05;28.00;99.90
1766;DHT22;880;52.452;8.656;2023-06-22T11:15:38;28.00;99.90
1766;DHT22;880;52.452;8.656;2023-06-22T11:18:05;28.00;99.90
1766;DHT22;880;52.452;8.656;2023-06-22T11:20:34;27.90;99.90
1766;DHT22;880;52.452;8.656;2023-06-22T11:23:05;28.00;99.90
1766;DHT22;880;52.452;8.656;2023-06-22T11:25:37;28.10;99.90
1766;DHT22;880;52.452;8.656;2023-06-22T11:28:07;28.30;99.90
1766;DHT22;880;52.452;8.656;2023-06-22T11:30:34;28.50;99.90
1766;DHT22;880;52.452;8.656;2023-06-22T11:33:01;28.60;99.90
1766;DHT22;880;52.452;8.656;2023-06-22T11:35:28;28.60;99.90
1766;DHT22;880;52.452;8.656;2023-06-22T11:37:55;28.80;99.90
1766;DHT22;880;52.452;8.656;2023-06-22T11:40:28;28.90;99.90
1766;DHT22;880;52.452;8.656;2023-06-22T11:42:56;28.80;99.90
1766;DHT22;880;52.452;8.656;2023-06-22T11:45:23;28.90;99.90
1766;DHT22;880;52.452;8.656;2023-06-22T11:47:50;29.10;99.90
1766;DHT22;880;52.452;8.656;2023-06-22T11:50:17;29.20;99.90
1766;DHT22;880;52.452;8.656;2023-06-22T11:52:44;29.40;99.90
1766;DHT22;880;52.452;8.656;2023-06-22T11:55:11;29.50;99.90
1766;DHT22;880;52.452;8.656;2023-06-22T11:57:38;29.70;99.90
1766;DHT22;880;52.452;8.656;2023-06-22T12:00:19;29.90;99.90
1766;DHT22;880;52.452;8.656;2023-06-22T12:02:47;29.90;99.90
1766;DHT22;880;52.452;8.656;2023-06-22T12:05:14;29.80;99.90
1766;DHT22;880;52.452;8.656;2023-06-22T12:07:41;29.70;99.90
1766;DHT22;880;52.452;8.656;2023-06-22T12:10:08;29.60;99.90
1766;DHT22;880;52.452;8.656;2023-06-22T12:12:36;29.60;99.90
1766;DHT22;880;52.452;8.656;2023-06-22T12:15:03;29.50;99.90
1766;DHT22;880;52.452;8.656;2023-06-22T12:17:30;29.60;99.90
1766;DHT22;880;52.452;8.656;2023-06-22T12:19:58;29.50;99.90
1766;DHT22;880;52.452;8.656;2023-06-22T12:22:25;29.50;99.90
1766;DHT22;880;52.452;8.656;2023-06-22T12:24:52;29.40;99.90
1766;DHT22;880;52.452;8.656;2023-06-22T12:27:19;29.40;99.90
1766;DHT22;880;52.452;8.656;2023-06-22T12:29:46;29.40;99.90
1766;DHT22;880;52.452;8.656;2023-06-22T12:32:14;29.40;99.90
1766;DHT22;880;52.452;8.656;2023-06-22T12:34:42;29.40;99.90
1766;DHT22;880;52.452;8.656;2023-06-22T12:37:10;29.40;99.90
1766;DHT22;880;52.452;8.656;2023-06-22T12:39:37;29.40;99.90
1766;DHT22;880;52.452;8.656;2023-06-22T12:42:04;29.30;99.90
1766;DHT22;880;52.452;8.656;2023-06-22T12:44:33;29.20;99.90
1766;DHT22;880;52.452;8.656;2023-06-22T12:47:00;29.10;99.90
1766;DHT22;880;52.452;8.656;2023-06-22T12:49:28;28.90;99.90
1766;DHT22;880;52.452;8.656;2023-06-22T12:51:55;28.70;99.90
1766;DHT22;880;52.452;8.656;2023-06-22T12:54:22;28.60;99.90
1766;DHT22;880;52.452;8.656;2023-06-22T12:56:52;28.60;99.90
1766;DHT22;880;52.452;8.656;2023-06-22T12:59:22;28.60;99.90
1766;DHT22;880;52.452;8.656;2023-06-22T13:01:49;28.70;99.90
1766;DHT22;880;52.452;8.656;2023-06-22T13:04:16;28.60;99.90
1766;DHT22;880;52.452;8.656;2023-06-22T13:06:42;28.50;99.90
1766;DHT22;880;52.452;8.656;2023-06-22T13:09:10;28.50;99.90
1766;DHT22;880;52.452;8.656;2023-06-22T13:11:40;28.40;99.90
1766;DHT22;880;52.452;8.656;2023-06-22T13:14:07;28.40;99.90
1766;DHT22;880;52.452;8.656;2023-06-22T13:16:34;28.30;99.90
1766;DHT22;880;52.452;8.656;2023-06-22T13:19:02;28.30;99.90
1766;DHT22;880;52.452;8.656;2023-06-22T13:21:30;28.20;99.90
1766;DHT22;880;52.452;8.656;2023-06-22T13:23:57;28.10;99.90
1766;DHT22;880;52.452;8.656;2023-06-22T13:26:24;28.00;99.90
1766;DHT22;880;52.452;8.656;2023-06-22T13:28:52;28.00;99.90
1766;DHT22;880;52.452;8.656;2023-06-22T13:31:20;27.90;99.90
1766;DHT22;880;52.452;8.656;2023-06-22T13:33:48;27.90;99.90
1766;DHT22;880;52.452;8.656;2023-06-22T13:36:15;27.70;99.90
1766;DHT22;880;52.452;8.656;2023-06-22T13:38:43;27.70;99.90
1766;DHT22;880;52.452;8.656;2023-06-22T13:41:11;27.60;99.90
1766;DHT22;880;52.452;8.656;2023-06-22T13:43:38;27.50;99.90
1766;DHT22;880;52.452;8.656;2023-06-22T13:46:05;27.40;99.90
1766;DHT22;880;52.452;8.656;2023-06-22T13:48:32;27.50;99.90
1766;DHT22;880;52.452;8.656;2023-06-22T13:50:59;27.40;99.90
1766;DHT22;880;52.452;8.656;2023-06-22T13:53:26;27.30;99.90
1766;DHT22;880;52.452;8.656;2023-06-22T13:55:53;27.30;99.90
1766;DHT22;880;52.452;8.656;2023-06-22T13:58:20;27.20;99.90
1766;DHT22;880;52.452;8.656;2023-06-22T14:00:47;27.20;99.90
1766;DHT22;880;52.452;8.656;2023-06-22T14:03:15;27.10;99.90
1766;DHT22;880;52.452;8.656;2023-06-22T14:05:43;27.00;99.90
1766;DHT22;880;52.452;8.656;2023-06-22T14:08:10;26.90;99.90
1766;DHT22;880;52.452;8.656;2023-06-22T14:10:57;26.60;99.90
1766;DHT22;880;52.452;8.656;2023-06-22T14:13:24;26.40;99.90
1766;DHT22;880;52.452;8.656;2023-06-22T14:15:51;26.20;99.90
1766;DHT22;880;52.452;8.656;2023-06-22T14:18:20;25.90;99.90
1766;DHT22;880;52.452;8.656;2023-06-22T14:20:49;25.70;99.90
1766;DHT22;880;52.452;8.656;2023-06-22T14:23:16;25.50;99.90
1766;DHT22;880;52.452;8.656;2023-06-22T14:25:43;25.40;99.90
1766;DHT22;880;52.452;8.656;2023-06-22T14:28:10;25.40;99.90
1766;DHT22;880;52.452;8.656;2023-06-22T14:30:36;25.40;99.90
1766;DHT22;880;52.452;8.656;2023-06-22T14:33:03;25.30;99.90
1766;DHT22;880;52.452;8.656;2023-06-22T14:35:30;25.20;99.90
1766;DHT22;880;52.452;8.656;2023-06-22T14:37:57;25.00;99.90
1766;DHT22;880;52.452;8.656;2023-06-22T14:40:25;24.80;99.90
1766;DHT22;880;52.452;8.656;2023-06-22T14:42:52;24.70;99.90
1766;DHT22;880;52.452;8.656;2023-06-22T14:45:19;24.50;99.90
1766;DHT22;880;52.452;8.656;2023-06-22T14:47:46;24.40;99.90
1766;DHT22;880;52.452;8.656;2023-06-22T14:50:14;24.30;99.90
1766;DHT22;880;52.452;8.656;2023-06-22T14:52:42;24.20;99.90
1766;DHT22;880;52.452;8.656;2023-06-22T14:55:10;24.20;99.90
1766;DHT22;880;52.452;8.656;2023-06-22T14:57:37;24.20;99.90
1766;DHT22;880;52.452;8.656;2023-06-22T15:00:04;24.20;99.90
1766;DHT22;880;52.452;8.656;2023-06-22T15:02:33;24.30;99.90
1766;DHT22;880;52.452;8.656;2023-06-22T15:05:00;24.20;99.90
1766;DHT22;880;52.452;8.656;2023-06-22T15:07:27;24.20;99.90
1766;DHT22;880;52.452;8.656;2023-06-22T15:09:54;24.20;99.90
1766;DHT22;880;52.452;8.656;2023-06-22T15:12:21;24.20;99.90
1766;DHT22;880;52.452;8.656;2023-06-22T15:14:48;24.10;99.90
1766;DHT22;880;52.452;8.656;2023-06-22T15:17:15;24.20;99.90
1766;DHT22;880;52.452;8.656;2023-06-22T15:19:42;24.20;99.90
1766;DHT22;880;52.452;8.656;2023-06-22T15:22:09;24.10;99.90
1766;DHT22;880;52.452;8.656;2023-06-22T15:24:37;24.10;99.90
1766;DHT22;880;52.452;8.656;2023-06-22T15:27:04;24.10;99.90
1766;DHT22;880;52.452;8.656;2023-06-22T15:29:31;24.00;99.90
1766;DHT22;880;52.452;8.656;2023-06-22T15:32:00;24.00;99.90
1766;DHT22;880;52.452;8.656;2023-06-22T15:34:28;24.00;99.90
1766;DHT22;880;52.452;8.656;2023-06-22T15:36:55;24.10;99.90
1766;DHT22;880;52.452;8.656;2023-06-22T15:39:22;24.00;99.90
1766;DHT22;880;52.452;8.656;2023-06-22T15:41:51;24.00;99.90
1766;DHT22;880;52.452;8.656;2023-06-22T15:44:23;24.00;99.90
1766;DHT22;880;52.452;8.656;2023-06-22T15:46:51;24.00;99.90
1766;DHT22;880;52.452;8.656;2023-06-22T15:49:18;23.90;99.90
1766;DHT22;880;52.452;8.656;2023-06-22T15:51:45;24.10;99.90
1766;DHT22;880;52.452;8.656;2023-06-22T15:54:12;24.20;99.90
1766;DHT22;880;52.452;8.656;2023-06-22T15:56:39;24.30;99.90
1766;DHT22;880;52.452;8.656;2023-06-22T15:59:06;24.40;99.90
1766;DHT22;880;52.452;8.656;2023-06-22T16:01:33;24.40;99.90
1766;DHT22;880;52.452;8.656;2023-06-22T16:04:00;24.40;99.90
1766;DHT22;880;52.452;8.656;2023-06-22T16:06:29;24.40;99.90
1766;DHT22;880;52.452;8.656;2023-06-22T16:08:56;24.50;99.90
1766;DHT22;880;52.452;8.656;2023-06-22T16:11:23;24.50;99.90
1766;DHT22;880;52.452;8.656;2023-06-22T16:13:50;24.60;99.90
1766;DHT22;880;52.452;8.656;2023-06-22T16:16:17;24.70;99.90
1766;DHT22;880;52.452;8.656;2023-06-22T16:18:44;24.70;99.90
1766;DHT22;880;52.452;8.656;2023-06-22T16:21:12;24.70;99.90
1766;DHT22;880;52.452;8.656;2023-06-22T16:23:39;24.70;99.90
1766;DHT22;880;52.452;8.656;2023-06-22T16:26:06;24.90;99.90
1766;DHT22;880;52.452;8.656;2023-06-22T16:28:33;25.10;99.90
1766;DHT22;880;52.452;8.656;2023-06-22T16:31:00;25.20;99.90